Time;durP1;ratioP1;P1;durP2;ratioP2;P2;SDS_P1;SDS_P2;PMS_P1;PMS_P2;Temp;Humidity;BMP_temperature;BMP_pressure;BME280_temperature;BME280_humidity;BME280_pressure;Samples;Min_cycle;Max_cycle;Signal;HPM_P1;HPM_P2
2022/11/13 00:01:09;;;;;;;18.08;12.20;;;5.30;99.90;;;;;;5132978;27;20050;-81
2022/11/13 00:03:35;;;;;;;16.10;12.70;;;5.40;99.90;;;;;;5122536;27;20049;-81
2022/11/13 00:06:01;;;;;;;14.85;13.07;;;5.40;99.90;;;;;;5113546;27;20043;-81
2022/11/13 00:08:27;;;;;;;17.80;13.13;;;5.40;99.90;;;;;;5115565;27;20131;-82
2022/11/13 00:11:02;;;;;;;19.25;14.25;;;5.40;99.90;;;;;;5135001;27;20126;-81
2022/11/13 00:13:28;;;;;;;16.35;12.55;;;5.50;99.90;;;;;;5147817;27;20050;-81
2022/11/13 00:15:58;;;;;;;18.60;12.70;;;5.50;99.90;;;;;;5147741;27;20038;-81
2022/11/13 00:18:24;;;;;;;16.98;12.27;;;5.50;99.90;;;;;;5144872;27;20046;-82
2022/11/13 00:20:50;;;;;;;16.98;13.27;;;5.50;99.90;;;;;;5120691;27;20379;-81
2022/11/13 00:23:15;;;;;;;20.67;12.82;;;5.50;99.90;;;;;;5114112;27;20043;-81
2022/11/13 00:25:41;;;;;;;16.92;13.15;;;5.50;99.90;;;;;;5148101;27;20038;-81
2022/11/13 00:28:07;;;;;;;14.45;11.80;;;5.60;99.90;;;;;;5147240;27;20042;-82
2022/11/13 00:30:32;;;;;;;19.40;12.32;;;5.60;99.90;;;;;;5147681;27;20128;-81
2022/11/13 00:32:58;;;;;;;19.45;13.73;;;5.60;99.90;;;;;;5147822;27;20412;-81
2022/11/13 00:35:23;;;;;;;18.75;13.68;;;5.60;99.90;;;;;;5129672;27;20415;-81
2022/11/13 00:37:49;;;;;;;18.15;14.15;;;5.60;99.90;;;;;;5132710;27;20081;-81
2022/11/13 00:40:15;;;;;;;17.25;11.90;;;5.60;99.90;;;;;;5147534;27;20043;-81
2022/11/13 00:42:40;;;;;;;17.73;13.20;;;5.60;99.90;;;;;;5147412;27;20046;-82
2022/11/13 00:45:07;;;;;;;19.70;14.52;;;5.60;99.90;;;;;;5127852;27;20043;-82
2022/11/13 00:47:34;;;;;;;18.35;13.88;;;5.60;99.90;;;;;;5110328;27;20047;-81
2022/11/13 00:49:59;;;;;;;17.45;13.88;;;5.60;99.90;;;;;;5123168;27;20046;-82
2022/11/13 00:52:25;;;;;;;16.25;13.85;;;5.60;99.90;;;;;;5124411;27;20051;-81
2022/11/13 00:54:51;;;;;;;17.08;12.82;;;5.60;99.90;;;;;;5110817;27;20061;-81
2022/11/13 00:57:16;;;;;;;16.33;12.90;;;5.60;99.90;;;;;;5123928;27;20357;-81
2022/11/13 00:59:42;;;;;;;18.30;12.55;;;5.60;99.90;;;;;;5136679;27;20058;-80
2022/11/13 01:02:09;;;;;;;16.08;12.48;;;5.60;99.90;;;;;;5120805;27;20043;-81
2022/11/13 01:04:34;;;;;;;16.52;12.35;;;5.60;99.90;;;;;;5119567;27;20488;-80
2022/11/13 01:07:00;;;;;;;15.48;12.32;;;5.60;99.90;;;;;;5147152;27;20053;-81
2022/11/13 01:09:25;;;;;;;16.10;13.20;;;5.60;99.90;;;;;;5118060;27;20449;-81
2022/11/13 01:11:51;;;;;;;16.50;12.40;;;5.60;99.90;;;;;;5142339;27;20099;-81
2022/11/13 01:14:17;;;;;;;15.95;12.18;;;5.60;99.90;;;;;;5144115;27;20046;-81
2022/11/13 01:16:42;;;;;;;17.55;13.40;;;5.80;99.90;;;;;;5147835;27;20043;-81
2022/11/13 01:19:08;;;;;;;20.58;13.45;;;5.60;99.90;;;;;;5126582;27;20054;-80
2022/11/13 01:21:33;;;;;;;16.85;13.13;;;5.60;99.90;;;;;;5127153;27;20516;-81
2022/11/13 01:24:00;;;;;;;15.45;13.48;;;5.60;99.90;;;;;;5126538;27;20039;-80
2022/11/13 01:26:27;;;;;;;16.50;12.38;;;5.60;99.90;;;;;;5130350;27;20507;-81
2022/11/13 01:28:54;;;;;;;16.38;12.55;;;5.60;99.90;;;;;;5147313;27;20046;-81
2022/11/13 01:31:22;;;;;;;14.73;12.25;;;5.60;99.90;;;;;;5129815;27;20106;-81
2022/11/13 01:33:48;;;;;;;17.05;12.45;;;5.60;99.90;;;;;;5148494;27;20030;-80
2022/11/13 01:36:21;;;;;;;19.48;13.93;;;5.60;99.90;;;;;;5148937;27;20035;-81
2022/11/13 01:38:47;;;;;;;;;;;5.60;99.90;;;;;;5129983;27;20528;-81
2022/11/13 01:41:25;;;;;;;18.23;13.05;;;5.60;99.90;;;;;;5135938;27;19919;-81
2022/11/13 01:43:52;;;;;;;16.83;13.93;;;5.60;99.90;;;;;;5109810;28;20047;-81
2022/11/13 01:46:28;;;;;;;19.55;14.90;;;5.60;99.90;;;;;;5147027;27;20050;-81
2022/11/13 01:49:09;;;;;;;21.17;14.48;;;5.90;99.90;;;;;;5146817;27;20519;-81
2022/11/13 01:51:38;;;;;;;18.05;13.63;;;5.60;99.90;;;;;;5133323;27;20419;-81
2022/11/13 01:54:09;;;;;;;17.25;13.50;;;5.70;99.90;;;;;;5126969;27;20047;-80
2022/11/13 01:56:35;;;;;;;17.70;13.63;;;5.70;99.90;;;;;;5127435;27;20566;-81
2022/11/13 01:59:08;;;;;;;17.35;13.23;;;5.60;99.90;;;;;;5135325;27;20129;-80
2022/11/13 02:01:34;;;;;;;20.58;14.57;;;6.40;99.90;;;;;;5147671;27;20066;-81
2022/11/13 02:04:00;;;;;;;19.50;14.77;;;5.70;99.90;;;;;;5144554;27;20039;-81
2022/11/13 02:06:32;;;;;;;18.60;14.15;;;5.70;99.90;;;;;;5126779;27;20035;-81
2022/11/13 02:08:57;;;;;;;17.92;14.35;;;5.70;99.90;;;;;;5138219;27;20138;-80
2022/11/13 02:11:24;;;;;;;17.52;13.45;;;5.60;99.90;;;;;;5147406;27;20524;-81
2022/11/13 02:13:50;;;;;;;18.50;14.38;;;5.70;99.90;;;;;;5147000;27;20058;-81
2022/11/13 02:16:17;;;;;;;21.38;16.58;;;5.60;99.90;;;;;;5135707;27;20051;-81
2022/11/13 02:18:43;;;;;;;20.23;15.30;;;5.70;99.90;;;;;;5110181;28;20110;-81
2022/11/13 02:21:49;;;;;;;21.10;15.40;;;5.70;99.90;;;;;;5136299;27;20097;-81
2022/11/13 02:24:30;;;;;;;17.65;13.93;;;5.60;99.90;;;;;;5129437;27;20492;-81
2022/11/13 02:27:00;;;;;;;17.92;13.55;;;5.60;99.90;;;;;;5146436;27;20082;-81
2022/11/13 02:29:26;;;;;;;19.63;14.18;;;5.60;99.90;;;;;;5145018;27;20038;-80
2022/11/13 02:31:51;;;;;;;18.83;14.02;;;5.50;99.90;;;;;;5112150;27;20404;-80
2022/11/13 02:34:17;;;;;;;19.30;14.48;;;5.50;99.90;;;;;;5130045;27;20049;-81
2022/11/13 02:36:43;;;;;;;19.27;14.50;;;5.50;99.90;;;;;;5146898;27;20074;-80
2022/11/13 02:39:10;;;;;;;19.67;15.77;;;5.50;99.90;;;;;;5140478;27;20046;-80
2022/11/13 02:41:37;;;;;;;21.15;16.90;;;5.50;99.90;;;;;;5149396;27;20408;-80
2022/11/13 02:44:06;;;;;;;21.90;16.10;;;5.50;99.90;;;;;;5150648;27;20078;-80
2022/11/13 02:46:32;;;;;;;18.95;15.38;;;5.50;99.90;;;;;;5113170;27;20047;-80
2022/11/13 02:48:58;;;;;;;21.00;15.63;;;5.50;99.90;;;;;;5130142;27;20043;-81
2022/11/13 02:51:24;;;;;;;21.27;15.45;;;5.50;99.90;;;;;;5129784;27;20046;-80
2022/11/13 02:53:50;;;;;;;20.40;15.63;;;5.50;99.90;;;;;;5130064;27;20054;-80
2022/11/13 02:56:15;;;;;;;19.80;15.48;;;5.60;99.90;;;;;;5129409;27;20085;-81
2022/11/13 02:58:41;;;;;;;20.55;16.05;;;5.50;99.90;;;;;;5145294;27;20143;-80
2022/11/13 03:01:07;;;;;;;21.13;16.05;;;5.60;99.90;;;;;;5128344;27;20043;-81
2022/11/13 03:03:32;;;;;;;21.27;16.50;;;5.50;99.90;;;;;;5130456;27;20086;-81
2022/11/13 03:05:58;;;;;;;20.83;16.48;;;5.50;99.90;;;;;;5144631;27;20045;-80
2022/11/13 03:08:24;;;;;;;21.15;16.55;;;5.60;99.90;;;;;;5140978;27;20064;-80
2022/11/13 03:10:51;;;;;;;22.20;16.83;;;5.60;99.90;;;;;;5136064;27;20101;-80
2022/11/13 03:13:16;;;;;;;21.92;15.80;;;5.60;99.90;;;;;;5141360;27;20042;-81
2022/11/13 03:15:42;;;;;;;20.05;16.75;;;5.60;99.90;;;;;;5131713;27;20042;-81
2022/11/13 03:18:08;;;;;;;20.35;15.85;;;5.60;99.90;;;;;;5150255;27;20051;-80
2022/11/13 03:20:35;;;;;;;20.83;15.70;;;5.60;99.90;;;;;;5134271;27;20046;-80
2022/11/13 03:23:02;;;;;;;20.63;14.90;;;5.60;99.90;;;;;;5143508;27;20115;-80
2022/11/13 03:25:28;;;;;;;22.90;16.10;;;5.50;99.90;;;;;;5142742;27;20038;-80
2022/11/13 03:27:53;;;;;;;23.55;17.25;;;5.50;99.90;;;;;;5149792;27;20046;-81
2022/11/13 03:30:19;;;;;;;20.38;16.92;;;5.50;99.90;;;;;;5132477;27;20084;-81
2022/11/13 03:32:44;;;;;;;22.65;16.55;;;5.50;99.90;;;;;;5150262;27;20041;-80
2022/11/13 03:35:10;;;;;;;21.10;16.90;;;5.50;99.90;;;;;;5149755;27;20379;-80
2022/11/13 03:37:36;;;;;;;18.48;15.40;;;5.50;99.90;;;;;;5145504;27;20034;-80
2022/11/13 03:40:01;;;;;;;22.30;17.17;;;5.50;99.90;;;;;;5136992;27;20074;-80
2022/11/13 03:42:27;;;;;;;21.27;16.65;;;5.60;99.90;;;;;;5147933;27;20561;-81
2022/11/13 03:44:52;;;;;;;20.05;16.02;;;5.50;99.90;;;;;;5148927;27;20043;-80
2022/11/13 03:47:18;;;;;;;23.02;17.00;;;5.40;99.90;;;;;;5148703;27;20046;-80
2022/11/13 03:49:43;;;;;;;22.58;17.13;;;5.40;99.90;;;;;;5149024;27;20038;-81
2022/11/13 03:52:09;;;;;;;21.40;16.50;;;5.40;99.90;;;;;;5113818;27;20409;-81
2022/11/13 03:54:35;;;;;;;20.70;17.25;;;5.30;99.90;;;;;;5125387;27;20074;-81
2022/11/13 03:57:00;;;;;;;22.10;17.00;;;5.30;99.90;;;;;;5136604;27;20051;-81
2022/11/13 03:59:26;;;;;;;20.77;16.83;;;5.30;99.90;;;;;;5146675;27;20062;-80
2022/11/13 04:01:51;;;;;;;21.42;16.48;;;5.30;99.90;;;;;;5130104;27;20039;-81
2022/11/13 04:04:17;;;;;;;24.30;17.30;;;5.30;99.90;;;;;;5128874;27;20074;-81
2022/11/13 04:06:43;;;;;;;22.55;17.10;;;5.40;99.90;;;;;;5145784;27;20459;-81
2022/11/13 04:09:11;;;;;;;21.45;16.23;;;5.30;99.90;;;;;;5148616;27;20121;-82
2022/11/13 04:11:37;;;;;;;22.27;16.52;;;5.40;99.90;;;;;;5139927;27;20051;-82
2022/11/13 04:14:02;;;;;;;19.58;15.88;;;5.30;99.90;;;;;;5150365;27;20049;-82
2022/11/13 04:16:30;;;;;;;23.67;17.17;;;5.30;99.90;;;;;;5135261;27;20099;-82
2022/11/13 04:18:56;;;;;;;22.38;16.63;;;5.90;99.90;;;;;;5140854;27;20039;-81
2022/11/13 04:21:24;;;;;;;22.13;16.63;;;5.30;99.90;;;;;;5149364;27;20095;-82
2022/11/13 04:23:49;;;;;;;22.13;15.40;;;5.30;99.90;;;;;;5149661;27;20057;-82
2022/11/13 04:26:20;;;;;;;22.85;16.42;;;5.30;99.90;;;;;;5137969;27;20051;-82
2022/11/13 04:28:48;;;;;;;18.83;15.40;;;5.60;99.90;;;;;;5139640;27;20039;-82
2022/11/13 04:31:14;;;;;;;19.23;16.00;;;5.20;99.90;;;;;;5148996;27;20048;-82
2022/11/13 04:33:39;;;;;;;20.02;15.75;;;5.20;99.90;;;;;;5150022;27;20043;-79
2022/11/13 04:36:05;;;;;;;19.95;15.32;;;5.20;99.90;;;;;;5139449;27;20035;-79
2022/11/13 04:38:31;;;;;;;19.65;15.45;;;5.20;99.90;;;;;;5141051;27;21539;-79
2022/11/13 04:43:43;;;;;;;19.58;15.77;;;5.10;99.90;;;;;;5136316;27;20525;-81
2022/11/13 04:46:09;;;;;;;21.35;16.25;;;5.10;99.90;;;;;;5140668;27;20046;-81
2022/11/13 04:48:34;;;;;;;23.83;17.08;;;5.10;99.90;;;;;;5148952;27;20098;-81
2022/11/13 04:51:03;;;;;;;19.88;15.75;;;5.10;99.90;;;;;;5148247;27;20476;-81
2022/11/13 04:53:31;;;;;;;24.23;17.40;;;5.10;99.90;;;;;;5148316;27;20046;-81
2022/11/13 04:55:57;;;;;;;23.95;16.25;;;5.10;99.90;;;;;;5148890;27;20047;-81
2022/11/13 04:58:25;;;;;;;22.13;16.60;;;5.10;99.90;;;;;;5148591;27;20133;-81
2022/11/13 05:00:51;;;;;;;23.30;18.10;;;5.30;99.90;;;;;;5138235;27;20189;-81
2022/11/13 05:03:16;;;;;;;23.77;17.88;;;5.10;99.90;;;;;;5147959;27;20039;-81
2022/11/13 05:05:44;;;;;;;22.67;17.25;;;5.00;99.90;;;;;;5141520;27;20043;-80
2022/11/13 05:08:11;;;;;;;21.77;16.38;;;5.00;99.90;;;;;;5125983;27;20527;-80
2022/11/13 05:10:37;;;;;;;24.10;17.70;;;5.00;99.90;;;;;;5113700;27;20075;-81
2022/11/13 05:13:02;;;;;;;24.25;17.25;;;5.00;99.90;;;;;;5146380;27;20143;-81
2022/11/13 05:15:28;;;;;;;21.90;17.63;;;5.00;99.90;;;;;;5147246;27;20071;-81
2022/11/13 05:17:54;;;;;;;20.60;16.15;;;4.90;99.90;;;;;;5148321;27;20051;-80
2022/11/13 05:20:19;;;;;;;20.60;16.77;;;4.90;99.90;;;;;;5135258;27;20035;-80
2022/11/13 05:22:45;;;;;;;26.25;17.35;;;4.80;99.90;;;;;;5147375;27;20046;-81
2022/11/13 05:25:10;;;;;;;23.75;18.15;;;4.90;99.90;;;;;;5147210;27;20652;-80
2022/11/13 05:27:36;;;;;;;27.27;18.38;;;5.00;99.90;;;;;;5129471;27;20046;-80
2022/11/13 05:30:02;;;;;;;24.25;17.80;;;5.10;99.90;;;;;;5146031;27;20043;-80
2022/11/13 05:32:28;;;;;;;23.40;17.70;;;5.20;99.90;;;;;;5148155;27;20047;-81
2022/11/13 05:34:53;;;;;;;22.23;17.02;;;5.10;99.90;;;;;;5115756;27;20400;-80
2022/11/13 05:37:19;;;;;;;26.45;17.65;;;5.10;99.90;;;;;;5131390;27;20062;-80
2022/11/13 05:39:44;;;;;;;22.98;17.65;;;5.20;99.90;;;;;;5117181;27;20041;-80
2022/11/13 05:42:10;;;;;;;25.52;18.38;;;5.20;99.90;;;;;;5128405;27;20058;-80
2022/11/13 05:44:35;;;;;;;26.15;17.33;;;5.20;99.90;;;;;;5142012;27;20039;-80
2022/11/13 05:47:01;;;;;;;21.75;16.10;;;5.20;99.90;;;;;;5135342;27;20590;-80
2022/11/13 05:49:27;;;;;;;23.13;17.70;;;5.20;99.90;;;;;;5146754;27;20054;-80
2022/11/13 05:51:53;;;;;;;21.27;16.77;;;5.10;99.90;;;;;;5124970;28;20054;-80
2022/11/13 05:54:19;;;;;;;20.85;16.70;;;5.10;99.90;;;;;;5128622;27;20050;-81
2022/11/13 05:56:44;;;;;;;20.73;15.80;;;5.00;99.90;;;;;;5116502;27;20046;-80
2022/11/13 05:59:10;;;;;;;22.95;16.40;;;5.00;99.90;;;;;;5145947;27;20047;-80
2022/11/13 06:01:38;;;;;;;21.40;15.90;;;5.00;99.90;;;;;;5128959;27;20086;-80
2022/11/13 06:04:05;;;;;;;20.67;16.20;;;4.90;99.90;;;;;;5125304;28;20062;-81
2022/11/13 06:06:31;;;;;;;21.65;17.33;;;4.90;99.90;;;;;;5123782;28;20491;-81
2022/11/13 06:08:59;;;;;;;20.85;16.52;;;4.90;99.90;;;;;;5146762;27;20051;-80
2022/11/13 06:11:27;;;;;;;21.30;15.80;;;4.80;99.90;;;;;;5112885;27;20055;-81
2022/11/13 06:13:54;;;;;;;22.63;17.88;;;4.80;99.90;;;;;;5126650;27;20543;-80
2022/11/13 06:16:26;;;;;;;23.25;18.15;;;4.80;99.90;;;;;;5116853;27;20536;-80
2022/11/13 06:19:00;;;;;;;22.48;17.20;;;5.50;99.90;;;;;;5135548;27;20046;-80
2022/11/13 06:21:28;;;;;;;23.35;17.30;;;5.00;99.90;;;;;;5150689;27;20192;-80
2022/11/13 06:23:56;;;;;;;22.10;17.50;;;5.00;99.90;;;;;;5148560;27;20741;-80
2022/11/13 06:26:24;;;;;;;21.42;17.25;;;5.80;99.90;;;;;;5132512;27;20062;-80
2022/11/13 06:28:50;;;;;;;24.23;18.30;;;5.10;99.90;;;;;;5147588;27;20054;-80
2022/11/13 06:31:18;;;;;;;22.20;17.45;;;5.10;99.90;;;;;;5140868;27;20047;-81
2022/11/13 06:33:44;;;;;;;22.88;17.02;;;5.10;99.90;;;;;;5139892;27;20514;-81
2022/11/13 06:36:13;;;;;;;20.75;16.40;;;5.20;99.90;;;;;;5139308;27;20053;-80
2022/11/13 06:38:40;;;;;;;23.20;16.83;;;5.20;99.90;;;;;;5150362;27;20031;-80
2022/11/13 06:41:07;;;;;;;20.33;16.02;;;5.20;99.90;;;;;;5131894;27;20153;-81
2022/11/13 06:43:33;;;;;;;21.05;16.30;;;5.10;99.90;;;;;;5151229;27;20377;-81
2022/11/13 06:46:03;;;;;;;20.15;16.25;;;5.10;99.90;;;;;;5145221;27;20495;-81
2022/11/13 06:48:28;;;;;;;20.73;14.68;;;5.10;99.90;;;;;;5133747;27;20092;-81
2022/11/13 06:50:54;;;;;;;20.75;15.93;;;5.00;99.90;;;;;;5139992;27;20047;-81
2022/11/13 06:53:20;;;;;;;20.08;15.27;;;5.00;99.90;;;;;;5148921;27;20039;-80
2022/11/13 06:55:47;;;;;;;19.70;15.60;;;5.00;99.90;;;;;;5134482;27;20042;-81
2022/11/13 06:58:14;;;;;;;20.83;16.15;;;5.00;99.90;;;;;;5149895;27;20091;-81
2022/11/13 07:00:40;;;;;;;20.17;15.93;;;5.00;99.90;;;;;;5150264;27;20042;-81
2022/11/13 07:03:13;;;;;;;21.60;16.67;;;5.00;99.90;;;;;;5150625;27;20050;-81
2022/11/13 07:05:39;;;;;;;19.20;15.52;;;5.00;99.90;;;;;;5133527;27;20042;-81
2022/11/13 07:08:04;;;;;;;19.67;16.05;;;5.00;99.90;;;;;;5148325;27;20039;-81
2022/11/13 07:10:30;;;;;;;20.60;16.05;;;5.40;99.90;;;;;;5150325;27;20175;-80
2022/11/13 07:12:59;;;;;;;21.15;15.63;;;5.00;99.90;;;;;;5145212;27;20034;-80
2022/11/13 07:15:24;;;;;;;20.77;15.88;;;5.00;99.90;;;;;;5132157;27;20069;-81
2022/11/13 07:17:50;;;;;;;21.38;15.02;;;5.00;99.90;;;;;;5150071;27;20126;-81
2022/11/13 07:20:15;;;;;;;21.15;15.95;;;5.00;99.90;;;;;;5133344;27;20050;-81
2022/11/13 07:22:41;;;;;;;21.33;16.17;;;5.00;99.90;;;;;;5141260;27;20043;-81
2022/11/13 07:25:07;;;;;;;20.63;16.90;;;5.00;99.90;;;;;;5129615;27;20138;-82
2022/11/13 07:27:32;;;;;;;19.70;15.45;;;5.00;99.90;;;;;;5139093;27;20141;-80
2022/11/13 07:29:58;;;;;;;20.42;15.45;;;5.00;99.90;;;;;;5149598;27;20106;-82
2022/11/13 07:32:24;;;;;;;22.17;16.65;;;5.00;99.90;;;;;;5151052;27;20034;-81
2022/11/13 07:34:49;;;;;;;21.83;17.38;;;5.10;99.90;;;;;;5149927;27;20141;-80
2022/11/13 07:37:15;;;;;;;20.48;16.67;;;5.10;99.90;;;;;;5149993;27;20773;-80
2022/11/13 07:39:40;;;;;;;22.13;16.30;;;5.10;99.90;;;;;;5132164;27;20433;-80
2022/11/13 07:42:06;;;;;;;21.77;16.15;;;5.10;99.90;;;;;;5148708;27;20125;-80
2022/11/13 07:44:31;;;;;;;22.10;15.90;;;5.10;99.90;;;;;;5133260;27;20047;-80
2022/11/13 07:46:57;;;;;;;20.48;16.25;;;5.20;99.90;;;;;;5130189;27;20560;-80
2022/11/13 07:49:22;;;;;;;18.55;15.88;;;5.20;99.90;;;;;;5129162;27;20047;-80
2022/11/13 07:51:48;;;;;;;21.52;15.95;;;5.10;99.90;;;;;;5129070;27;20035;-81
2022/11/13 07:54:14;;;;;;;18.80;15.65;;;5.20;99.90;;;;;;5128835;27;20036;-80
2022/11/13 07:56:39;;;;;;;19.35;15.90;;;5.20;99.90;;;;;;5128832;27;20168;-82
2022/11/13 07:59:06;;;;;;;20.42;15.75;;;5.20;99.90;;;;;;5129241;27;20055;-79
2022/11/13 08:01:35;;;;;;;20.58;16.10;;;5.30;99.90;;;;;;5141680;27;20405;-80
2022/11/13 08:04:01;;;;;;;20.83;16.25;;;5.30;99.90;;;;;;5148800;27;20056;-80
2022/11/13 08:06:26;;;;;;;19.17;15.55;;;5.40;99.90;;;;;;5150794;27;20042;-80
2022/11/13 08:08:52;;;;;;;19.75;15.93;;;5.40;99.90;;;;;;5149625;27;20126;-81
2022/11/13 08:11:18;;;;;;;17.42;14.93;;;5.40;99.90;;;;;;5150033;27;20046;-81
2022/11/13 08:13:44;;;;;;;19.10;14.95;;;5.40;99.90;;;;;;5132874;27;20376;-81
2022/11/13 08:16:10;;;;;;;19.08;15.02;;;5.50;99.90;;;;;;5149302;27;20042;-81
2022/11/13 08:18:35;;;;;;;20.17;15.63;;;5.60;99.90;;;;;;5149130;27;20465;-80
2022/11/13 08:21:03;;;;;;;19.90;15.23;;;5.60;99.90;;;;;;5149937;27;20079;-81
2022/11/13 08:23:29;;;;;;;18.17;14.70;;;5.60;99.90;;;;;;5149252;27;20420;-80
2022/11/13 08:25:54;;;;;;;17.38;14.02;;;5.70;99.90;;;;;;5148767;27;20043;-81
2022/11/13 08:28:20;;;;;;;17.30;14.02;;;5.70;99.90;;;;;;5132209;27;20047;-80
2022/11/13 08:30:45;;;;;;;19.08;14.43;;;5.80;99.90;;;;;;5132451;27;20050;-80
2022/11/13 08:33:11;;;;;;;15.70;13.30;;;5.90;99.90;;;;;;5148369;27;20074;-82
2022/11/13 08:35:37;;;;;;;17.55;14.15;;;5.90;99.90;;;;;;5149445;27;20057;-82
2022/11/13 08:38:04;;;;;;;17.83;14.35;;;6.00;99.90;;;;;;5148856;27;20475;-83
2022/11/13 08:40:30;;;;;;;18.77;13.65;;;6.10;99.90;;;;;;5149414;27;20072;-82
2022/11/13 08:43:03;;;;;;;16.83;13.18;;;6.10;99.90;;;;;;5147947;27;20051;-83
2022/11/13 08:45:29;;;;;;;15.90;13.15;;;6.20;99.90;;;;;;5148728;27;20095;-82
2022/11/13 08:48:02;;;;;;;16.80;13.45;;;6.30;99.90;;;;;;5132419;27;20130;-82
2022/11/13 08:50:29;;;;;;;17.42;13.30;;;6.30;99.90;;;;;;5127523;27;20150;-82
2022/11/13 08:52:56;;;;;;;16.67;13.52;;;6.40;99.90;;;;;;5127305;27;20031;-83
2022/11/13 08:55:22;;;;;;;16.45;13.65;;;6.50;99.90;;;;;;5128043;27;20035;-82
2022/11/13 08:57:48;;;;;;;16.65;13.18;;;6.60;99.90;;;;;;5109390;27;20133;-83
2022/11/13 09:00:14;;;;;;;15.35;13.38;;;6.70;99.90;;;;;;5127057;27;20137;-82
2022/11/13 09:02:40;;;;;;;14.95;12.70;;;6.80;99.90;;;;;;5142147;27;20050;-82
2022/11/13 09:05:07;;;;;;;16.92;12.60;;;6.90;99.90;;;;;;5147261;27;20529;-83
2022/11/13 09:07:33;;;;;;;14.95;12.85;;;7.00;99.90;;;;;;5119237;27;20817;-82
2022/11/13 09:09:58;;;;;;;14.82;11.82;;;7.10;99.90;;;;;;5126546;27;20051;-82
2022/11/13 09:12:24;;;;;;;13.10;11.68;;;7.20;99.90;;;;;;5126866;27;20047;-82
2022/11/13 09:14:50;;;;;;;13.20;11.80;;;7.30;99.90;;;;;;5127625;27;20084;-82
2022/11/13 09:17:16;;;;;;;13.55;11.60;;;7.40;99.90;;;;;;5126811;27;20654;-82
2022/11/13 09:19:42;;;;;;;13.15;11.32;;;7.50;99.90;;;;;;5109878;27;20043;-82
2022/11/13 09:22:07;;;;;;;12.88;11.48;;;7.50;99.90;;;;;;5137093;27;20454;-82
2022/11/13 09:24:33;;;;;;;12.30;11.00;;;7.60;99.90;;;;;;5147054;27;20042;-82
2022/11/13 09:26:59;;;;;;;16.70;11.02;;;7.70;99.90;;;;;;5146827;27;20047;-81
2022/11/13 09:29:27;;;;;;;12.75;11.27;;;7.70;99.90;;;;;;5130836;27;20031;-82
2022/11/13 09:31:53;;;;;;;12.05;10.85;;;7.80;99.90;;;;;;5147134;27;20039;-82
2022/11/13 09:34:19;;;;;;;13.43;11.63;;;7.80;99.90;;;;;;5130786;27;20116;-82
2022/11/13 09:36:45;;;;;;;14.05;11.00;;;7.90;99.90;;;;;;5148114;27;20034;-82
2022/11/13 09:39:10;;;;;;;12.38;11.07;;;7.90;99.90;;;;;;5137589;27;20051;-83
2022/11/13 09:41:46;;;;;;;11.63;10.43;;;8.00;99.90;;;;;;5127677;27;20437;-82
2022/11/13 09:44:17;;;;;;;12.85;11.50;;;8.10;99.90;;;;;;5129315;27;20527;-82
2022/11/13 09:46:48;;;;;;;12.82;11.10;;;8.10;99.90;;;;;;5130022;27;20134;-82
2022/11/13 09:49:25;;;;;;;12.55;11.05;;;8.10;99.90;;;;;;5131456;27;20360;-82
2022/11/13 09:51:57;;;;;;;12.40;11.10;;;8.20;99.90;;;;;;5149884;27;20554;-81
2022/11/13 09:54:23;;;;;;;12.73;11.40;;;8.30;99.90;;;;;;5150772;27;20043;-83
2022/11/13 09:57:13;;;;;;;11.52;10.32;;;8.40;99.90;;;;;;5133943;27;20045;-83
2022/11/13 09:59:51;;;;;;;13.45;11.63;;;8.40;99.90;;;;;;5131590;27;20129;-84
2022/11/13 10:02:22;;;;;;;11.60;10.40;;;8.50;99.90;;;;;;5108079;27;20061;-83
2022/11/13 10:05:05;;;;;;;12.13;10.40;;;8.50;99.90;;;;;;5123976;27;20041;-83
2022/11/13 10:08:12;;;;;;;12.05;10.63;;;8.70;99.90;;;;;;5119202;27;20051;-82
2022/11/13 10:11:02;;;;;;;11.63;10.43;;;8.70;99.90;;;;;;5146354;27;20054;-83
2022/11/13 10:13:36;;;;;;;12.27;10.48;;;8.80;99.90;;;;;;5123111;27;20051;-82
2022/11/13 10:16:37;;;;;;;12.55;11.05;;;8.80;99.90;;;;;;5129290;27;20043;-82
2022/11/13 10:19:18;;;;;;;13.63;10.68;;;8.80;99.90;;;;;;5128635;27;20047;-82
2022/11/13 10:22:21;;;;;;;14.07;10.70;;;9.40;99.90;;;;;;5129678;27;20046;-81
2022/11/13 10:24:50;;;;;;;11.43;10.25;;;8.90;99.90;;;;;;5130225;27;20485;-81
2022/11/13 10:27:16;;;;;;;11.40;10.20;;;9.10;99.90;;;;;;5129503;27;20075;-81
2022/11/13 10:29:42;;;;;;;13.90;10.43;;;9.20;99.90;;;;;;5129903;27;20489;-82
2022/11/13 10:32:18;;;;;;;11.60;10.40;;;9.40;99.90;;;;;;5112955;27;20111;-82
2022/11/13 10:35:11;;;;;;;11.10;9.90;;;9.50;99.90;;;;;;5109898;28;20062;-84
2022/11/13 10:37:47;;;;;;;10.10;9.07;;;9.70;99.90;;;;;;5108949;28;20108;-82
2022/11/13 10:40:24;;;;;;;10.52;9.52;;;9.80;99.90;;;;;;5111455;28;20076;-83
2022/11/13 10:42:49;;;;;;;11.90;9.77;;;9.90;99.90;;;;;;5110924;28;20043;-83
2022/11/13 10:45:18;;;;;;;11.25;9.70;;;10.20;99.90;;;;;;5115162;27;20065;-83
2022/11/13 10:47:49;;;;;;;11.52;9.27;;;10.20;99.90;;;;;;5122609;27;20047;-84
2022/11/13 10:50:22;;;;;;;9.55;8.57;;;10.40;99.90;;;;;;5109751;28;20445;-83
2022/11/13 10:52:50;;;;;;;9.80;8.77;;;10.50;99.90;;;;;;5110099;27;20376;-82
2022/11/13 10:55:38;;;;;;;10.50;8.90;;;10.70;99.90;;;;;;5110064;28;20058;-82
2022/11/13 10:58:15;;;;;;;10.98;8.93;;;10.80;99.90;;;;;;5107831;28;20036;-83
2022/11/13 11:00:43;;;;;;;9.50;8.60;;;10.90;99.90;;;;;;5133417;27;20050;-83
2022/11/13 11:03:20;;;;;;;9.10;8.20;;;11.00;99.90;;;;;;5142435;27;20140;-83
2022/11/13 11:05:55;;;;;;;10.43;8.30;;;11.20;99.90;;;;;;5138994;27;20038;-83
2022/11/13 11:08:24;;;;;;;9.38;8.48;;;11.30;99.90;;;;;;5150623;27;20045;-83
2022/11/13 11:13:47;;;;;;;9.18;8.35;;;11.40;99.90;;;;;;5151045;27;20055;-83
2022/11/13 11:16:20;;;;;;;9.07;8.18;;;11.50;99.90;;;;;;5150939;27;20058;-83
2022/11/13 11:18:53;;;;;;;9.90;7.90;;;11.70;99.90;;;;;;5132574;27;20046;-82
2022/11/13 11:21:25;;;;;;;9.70;8.70;;;11.60;99.90;;;;;;5137966;27;20046;-83
2022/11/13 11:24:05;;;;;;;9.05;8.15;;;11.80;99.90;;;;;;5141543;27;20040;-83
2022/11/13 11:26:57;;;;;;;9.45;8.48;;;11.90;99.90;;;;;;5148505;27;20043;-84
2022/11/13 11:29:29;;;;;;;7.85;7.15;;;12.00;99.90;;;;;;5151116;27;20052;-82
2022/11/13 11:32:31;;;;;;;8.98;8.05;;;12.00;99.90;;;;;;5150298;27;20368;-83
2022/11/13 11:35:42;;;;;;;7.78;6.95;;;12.10;99.90;;;;;;5149186;27;20030;-83
2022/11/13 11:38:20;;;;;;;10.98;7.78;;;12.30;99.90;;;;;;5107867;27;20505;-83
2022/11/13 11:40:51;;;;;;;8.00;7.20;;;12.40;99.90;;;;;;5129265;27;20043;-84
2022/11/13 11:43:22;;;;;;;9.70;7.57;;;12.50;99.90;;;;;;5130470;27;20047;-82
2022/11/13 11:45:48;;;;;;;7.78;6.47;;;12.50;99.90;;;;;;5117862;27;20046;-82
2022/11/13 11:48:25;;;;;;;7.22;6.53;;;12.90;99.90;;;;;;5147541;27;20043;-83
2022/11/13 11:51:21;;;;;;;7.25;6.55;;;12.70;99.90;;;;;;5149994;27;20051;-81
2022/11/13 11:54:10;;;;;;;8.13;7.03;;;12.80;99.90;;;;;;5133328;27;20443;-82
2022/11/13 11:56:52;;;;;;;7.55;6.68;;;12.90;99.90;;;;;;5120460;27;20046;-82
2022/11/13 11:59:38;;;;;;;7.82;7.03;;;12.90;99.90;;;;;;5146138;27;20124;-82
2022/11/13 12:02:34;;;;;;;8.38;7.57;;;12.90;99.90;;;;;;5121357;27;20050;-81
2022/11/13 12:05:07;;;;;;;8.40;7.50;;;12.90;99.90;;;;;;5135243;27;20041;-80
2022/11/13 12:07:40;;;;;;;7.82;7.03;;;13.00;99.90;;;;;;5149312;27;20043;-81
2022/11/13 12:10:25;;;;;;;7.63;6.93;;;13.00;99.90;;;;;;5145254;27;20050;-82
2022/11/13 12:13:11;;;;;;;9.23;7.03;;;13.00;99.90;;;;;;5147646;27;20084;-82
2022/11/13 12:15:57;;;;;;;7.90;6.78;;;13.00;99.90;;;;;;5144132;27;20108;-81
2022/11/13 12:18:49;;;;;;;8.00;7.05;;;13.10;99.90;;;;;;5149254;27;20445;-82
2022/11/13 12:21:35;;;;;;;7.18;6.55;;;13.10;99.90;;;;;;5131757;27;20083;-83
2022/11/13 12:24:43;;;;;;;7.38;6.63;;;13.10;99.90;;;;;;5131024;27;20161;-82
2022/11/13 12:27:19;;;;;;;6.95;6.25;;;13.20;99.90;;;;;;5129305;27;20043;-82
2022/11/13 12:30:06;;;;;;;7.38;6.15;;;13.40;99.90;;;;;;5128815;27;20043;-83
2022/11/13 12:32:52;;;;;;;7.88;7.07;;;13.20;99.90;;;;;;5128614;27;20054;-81
2022/11/13 12:35:23;;;;;;;7.05;6.35;;;13.40;99.90;;;;;;5130477;27;20057;-81
2022/11/13 12:38:13;;;;;;;9.43;6.55;;;13.00;99.90;;;;;;5131018;27;20043;-81
2022/11/13 12:40:57;;;;;;;7.43;6.30;;;13.20;99.90;;;;;;5139243;27;20504;-81
2022/11/13 12:43:44;;;;;;;7.68;6.35;;;13.20;99.90;;;;;;5148383;27;20444;-83
2022/11/13 12:46:11;;;;;;;7.05;6.35;;;13.20;99.90;;;;;;5148301;27;20054;-81
2022/11/13 12:48:39;;;;;;;9.60;6.90;;;13.10;99.90;;;;;;5148131;27;20066;-81
2022/11/13 12:51:11;;;;;;;11.25;7.68;;;13.00;99.90;;;;;;5132225;27;20091;-82
2022/11/13 12:53:55;;;;;;;7.80;7.00;;;13.00;99.90;;;;;;5129859;27;20407;-82
2022/11/13 12:56:23;;;;;;;8.00;7.05;;;12.90;99.90;;;;;;5146427;27;20047;-83